Baker, North Dakota
Current Conditions -  °F | °C
As of 11:35 AM on Saturday 25 Oct 2014 (Local Time) from K9D7 Reporting Station
Clear Clear  
Wind Chill: 50°   Ceiling: Unl
Heat Index: 50°   Visibility: 10mi
Dew Point: 32°   Wind: 13mph
Humidity: 50%   Direction: 290°WNW
Pressure: 30.11"   Gusts: 18mph
Location:  48.3264°N, 99.5237°W
Report Text: K9D7 251635Z AUTO 29011G16KT 10SM CLR 10/00 A3011 RMK AO2
Loading
Personal Weather Stations






























Interactive Weather Map
Tropical Storm Tracking
New forecast layout! Learn more

10-Day Weather Forecast

Advertisements
Track Severe Weather on mobile